sensor_id;sensor_type;location;lat;lon;timestamp;pressure;altitude;pressure_sealevel;temperature;humidity
4415;BME280;2220;42.670;23.398;2023-11-21T09:59:53;92471.47;;;8.24;100.00
4415;BME280;2220;42.670;23.398;2023-11-21T10:02:26;92551.09;;;7.87;100.00
4415;BME280;2220;42.670;23.398;2023-11-21T10:04:53;92554.00;;;8.22;100.00
4415;BME280;2220;42.670;23.398;2023-11-21T10:07:20;92590.38;;;8.30;100.00
4415;BME280;2220;42.670;23.398;2023-11-21T10:09:47;92620.34;;;8.36;100.00
4415;BME280;2220;42.670;23.398;2023-11-21T10:12:15;92666.34;;;8.45;100.00
4415;BME280;2220;42.670;23.398;2023-11-21T10:14:41;92729.34;;;8.31;100.00
4415;BME280;2220;42.670;23.398;2023-11-21T10:17:10;92744.03;;;8.63;100.00
4415;BME280;2220;42.670;23.398;2023-11-21T10:19:39;92768.66;;;9.02;100.00
4415;BME280;2220;42.670;23.398;2023-11-21T10:22:05;92816.66;;;9.05;100.00
4415;BME280;2220;42.670;23.398;2023-11-21T10:24:32;92836.84;;;9.44;100.00
4415;BME280;2220;42.670;23.398;2023-11-21T10:26:58;92854.81;;;9.76;100.00
4415;BME280;2220;42.670;23.398;2023-11-21T10:29:23;92903.06;;;10.05;100.00
4415;BME280;2220;42.670;23.398;2023-11-21T10:31:52;92972.81;;;10.03;100.00
4415;BME280;2220;42.670;23.398;2023-11-21T10:34:20;93055.16;;;9.94;100.00
4415;BME280;2220;42.670;23.398;2023-11-21T10:36:46;93120.69;;;9.96;100.00
4415;BME280;2220;42.670;23.398;2023-11-21T10:39:19;93174.44;;;9.87;100.00
4415;BME280;2220;42.670;23.398;2023-11-21T10:41:46;93188.22;;;10.15;100.00
4415;BME280;2220;42.670;23.398;2023-11-21T10:44:16;93220.50;;;10.41;100.00
4415;BME280;2220;42.670;23.398;2023-11-21T10:46:47;93275.66;;;10.43;100.00
4415;BME280;2220;42.670;23.398;2023-11-21T10:49:17;93326.84;;;10.48;100.00
4415;BME280;2220;42.670;23.398;2023-11-21T10:51:46;93373.28;;;10.27;100.00
4415;BME280;2220;42.670;23.398;2023-11-21T10:54:23;93355.38;;;10.53;100.00
4415;BME280;2220;42.670;23.398;2023-11-21T10:56:50;93344.19;;;10.66;100.00
4415;BME280;2220;42.670;23.398;2023-11-21T10:59:19;93303.41;;;10.61;100.00
4415;BME280;2220;42.670;23.398;2023-11-21T11:01:46;93249.91;;;10.42;100.00
4415;BME280;2220;42.670;23.398;2023-11-21T11:04:15;93190.63;;;10.52;100.00
4415;BME280;2220;42.670;23.398;2023-11-21T11:07:02;93155.34;;;10.46;100.00
4415;BME280;2220;42.670;23.398;2023-11-21T11:09:31;93090.09;;;10.65;100.00
4415;BME280;2220;42.670;23.398;2023-11-21T11:11:59;93082.13;;;10.61;100.00
4415;BME280;2220;42.670;23.398;2023-11-21T11:14:25;93073.81;;;10.37;100.00
4415;BME280;2220;42.670;23.398;2023-11-21T11:16:53;93048.72;;;10.41;100.00
4415;BME280;2220;42.670;23.398;2023-11-21T11:19:19;93034.22;;;10.26;100.00
4415;BME280;2220;42.670;23.398;2023-11-21T11:29:33;92995.72;;;9.78;100.00
4415;BME280;2220;42.670;23.398;2023-11-21T11:34:57;92971.25;;;9.66;100.00
4415;BME280;2220;42.670;23.398;2023-11-21T11:37:26;92953.63;;;9.76;100.00
4415;BME280;2220;42.670;23.398;2023-11-21T11:39:52;92948.97;;;9.87;100.00
4415;BME280;2220;42.670;23.398;2023-11-21T11:42:21;92949.69;;;9.79;100.00
4415;BME280;2220;42.670;23.398;2023-11-21T11:44:49;92957.72;;;9.55;100.00
4415;BME280;2220;42.670;23.398;2023-11-21T11:47:31;92952.91;;;9.48;100.00
4415;BME280;2220;42.670;23.398;2023-11-21T11:52:42;92969.09;;;9.32;100.00
4415;BME280;2220;42.670;23.398;2023-11-21T11:55:18;92977.28;;;9.25;100.00
4415;BME280;2220;42.670;23.398;2023-11-21T11:57:45;92977.19;;;9.16;100.00
4415;BME280;2220;42.670;23.398;2023-11-21T12:00:22;92969.00;;;9.09;100.00
4415;BME280;2220;42.670;23.398;2023-11-21T12:02:54;92960.16;;;8.96;100.00
4415;BME280;2220;42.670;23.398;2023-11-21T12:05:22;92943.78;;;8.96;100.00
4415;BME280;2220;42.670;23.398;2023-11-21T12:07:52;92934.28;;;8.91;100.00
4415;BME280;2220;42.670;23.398;2023-11-21T12:10:24;92930.16;;;8.77;100.00
4415;BME280;2220;42.670;23.398;2023-11-21T12:12:52;92936.41;;;8.76;100.00
4415;BME280;2220;42.670;23.398;2023-11-21T12:15:18;92917.47;;;8.75;100.00
4415;BME280;2220;42.670;23.398;2023-11-21T12:17:44;92922.06;;;8.64;100.00
4415;BME280;2220;42.670;23.398;2023-11-21T12:20:11;92905.53;;;8.60;100.00
4415;BME280;2220;42.670;23.398;2023-11-21T12:22:47;92890.34;;;8.54;100.00
4415;BME280;2220;42.670;23.398;2023-11-21T12:25:14;92886.88;;;8.45;100.00
4415;BME280;2220;42.670;23.398;2023-11-21T12:27:48;92871.19;;;8.36;100.00
4415;BME280;2220;42.670;23.398;2023-11-21T12:30:19;92846.31;;;8.35;100.00
4415;BME280;2220;42.670;23.398;2023-11-21T12:32:54;92817.00;;;8.34;100.00
4415;BME280;2220;42.670;23.398;2023-11-21T12:35:22;92807.63;;;8.33;100.00
4415;BME280;2220;42.670;23.398;2023-11-21T12:37:49;92806.22;;;8.27;100.00
4415;BME280;2220;42.670;23.398;2023-11-21T12:40:15;92793.63;;;8.21;100.00
4415;BME280;2220;42.670;23.398;2023-11-21T12:42:43;92772.28;;;8.24;100.00
4415;BME280;2220;42.670;23.398;2023-11-21T12:47:50;92775.25;;;8.17;100.00
4415;BME280;2220;42.670;23.398;2023-11-21T12:50:19;92781.72;;;8.20;100.00
4415;BME280;2220;42.670;23.398;2023-11-21T12:52:49;92763.94;;;8.13;100.00
4415;BME280;2220;42.670;23.398;2023-11-21T12:55:17;92761.63;;;8.25;100.00
4415;BME280;2220;42.670;23.398;2023-11-21T12:57:45;92762.97;;;8.23;100.00
4415;BME280;2220;42.670;23.398;2023-11-21T13:00:16;92746.56;;;8.27;100.00
4415;BME280;2220;42.670;23.398;2023-11-21T13:02:53;92749.03;;;8.32;100.00
4415;BME280;2220;42.670;23.398;2023-11-21T13:05:33;92728.69;;;8.26;100.00
4415;BME280;2220;42.670;23.398;2023-11-21T13:08:02;92728.03;;;8.20;100.00
4415;BME280;2220;42.670;23.398;2023-11-21T13:10:30;92741.56;;;8.17;100.00
4415;BME280;2220;42.670;23.398;2023-11-21T13:12:57;92743.59;;;8.20;100.00
4415;BME280;2220;42.670;23.398;2023-11-21T13:15:27;92734.94;;;8.25;100.00
4415;BME280;2220;42.670;23.398;2023-11-21T13:17:54;92712.44;;;8.34;100.00
4415;BME280;2220;42.670;23.398;2023-11-21T13:20:20;92702.19;;;8.43;100.00
4415;BME280;2220;42.670;23.398;2023-11-21T13:22:56;92711.78;;;8.42;100.00
4415;BME280;2220;42.670;23.398;2023-11-21T13:25:25;92712.06;;;8.54;100.00
4415;BME280;2220;42.670;23.398;2023-11-21T13:27:54;92693.81;;;8.59;100.00
4415;BME280;2220;42.670;23.398;2023-11-21T13:30:20;92699.16;;;8.63;100.00
4415;BME280;2220;42.670;23.398;2023-11-21T13:32:56;92704.44;;;8.58;100.00
4415;BME280;2220;42.670;23.398;2023-11-21T13:35:28;92687.09;;;8.58;100.00
4415;BME280;2220;42.670;23.398;2023-11-21T13:38:04;92691.38;;;8.63;100.00
4415;BME280;2220;42.670;23.398;2023-11-21T13:40:31;92691.09;;;8.64;100.00
4415;BME280;2220;42.670;23.398;2023-11-21T13:43:01;92689.75;;;8.67;100.00
4415;BME280;2220;42.670;23.398;2023-11-21T13:45:30;92689.75;;;8.67;100.00
4415;BME280;2220;42.670;23.398;2023-11-21T13:47:56;92677.41;;;8.73;100.00
4415;BME280;2220;42.670;23.398;2023-11-21T13:50:26;92667.09;;;8.81;100.00
4415;BME280;2220;42.670;23.398;2023-11-21T13:53:01;92664.94;;;8.75;100.00
4415;BME280;2220;42.670;23.398;2023-11-21T13:55:42;92674.03;;;8.72;100.00
4415;BME280;2220;42.670;23.398;2023-11-21T13:58:07;92666.25;;;8.72;100.00
4415;BME280;2220;42.670;23.398;2023-11-21T14:00:37;92660.50;;;8.75;100.00
4415;BME280;2220;42.670;23.398;2023-11-21T14:03:14;92660.13;;;8.68;100.00
4415;BME280;2220;42.670;23.398;2023-11-21T14:05:48;92648.63;;;8.60;100.00
4415;BME280;2220;42.670;23.398;2023-11-21T14:08:19;92650.81;;;8.67;100.00
4415;BME280;2220;42.670;23.398;2023-11-21T14:10:47;92654.06;;;8.73;100.00
4415;BME280;2220;42.670;23.398;2023-11-21T14:13:18;92657.66;;;8.63;100.00
4415;BME280;2220;42.670;23.398;2023-11-21T14:15:45;92657.94;;;8.61;100.00
4415;BME280;2220;42.670;23.398;2023-11-21T14:18:12;92647.09;;;8.82;100.00
4415;BME280;2220;42.670;23.398;2023-11-21T14:20:40;92644.22;;;8.83;100.00
4415;BME280;2220;42.670;23.398;2023-11-21T14:23:06;92648.66;;;8.83;100.00
4415;BME280;2220;42.670;23.398;2023-11-21T14:25:35;92669.75;;;8.67;100.00
4415;BME280;2220;42.670;23.398;2023-11-21T14:28:05;92658.38;;;8.77;100.00
4415;BME280;2220;42.670;23.398;2023-11-21T14:30:32;92637.19;;;8.84;100.00
4415;BME280;2220;42.670;23.398;2023-11-21T14:32:59;92655.59;;;8.74;100.00
4415;BME280;2220;42.670;23.398;2023-11-21T14:35:25;92651.34;;;8.78;100.00
4415;BME280;2220;42.670;23.398;2023-11-21T14:37:52;92640.91;;;8.69;100.00
4415;BME280;2220;42.670;23.398;2023-11-21T14:40:18;92645.13;;;8.65;100.00
4415;BME280;2220;42.670;23.398;2023-11-21T14:42:47;92641.47;;;8.66;100.00
4415;BME280;2220;42.670;23.398;2023-11-21T14:45:13;92631.88;;;8.66;100.00
4415;BME280;2220;42.670;23.398;2023-11-21T14:47:42;92624.63;;;8.77;100.00
4415;BME280;2220;42.670;23.398;2023-11-21T14:50:13;92632.53;;;8.72;100.00
4415;BME280;2220;42.670;23.398;2023-11-21T14:52:57;92633.78;;;8.75;100.00
4415;BME280;2220;42.670;23.398;2023-11-21T14:55:24;92636.72;;;8.59;100.00
4415;BME280;2220;42.670;23.398;2023-11-21T14:58:08;92637.78;;;8.58;100.00
4415;BME280;2220;42.670;23.398;2023-11-21T15:00:38;92628.63;;;8.61;100.00
4415;BME280;2220;42.670;23.398;2023-11-21T15:03:11;92628.16;;;8.59;100.00
4415;BME280;2220;42.670;23.398;2023-11-21T15:05:51;92647.91;;;8.46;100.00
4415;BME280;2220;42.670;23.398;2023-11-21T15:08:18;92642.88;;;8.50;100.00
4415;BME280;2220;42.670;23.398;2023-11-21T15:10:51;92633.00;;;8.52;100.00
4415;BME280;2220;42.670;23.398;2023-11-21T15:13:21;92619.13;;;8.56;100.00
4415;BME280;2220;42.670;23.398;2023-11-21T15:15:52;92615.34;;;8.62;100.00
4415;BME280;2220;42.670;23.398;2023-11-21T15:18:20;92613.06;;;8.61;100.00
4415;BME280;2220;42.670;23.398;2023-11-21T15:20:46;92633.00;;;8.52;100.00
4415;BME280;2220;42.670;23.398;2023-11-21T15:23:13;92630.09;;;8.53;100.00
4415;BME280;2220;42.670;23.398;2023-11-21T15:25:38;92628.44;;;8.57;100.00
4415;BME280;2220;42.670;23.398;2023-11-21T15:28:04;92623.72;;;8.37;100.00
4415;BME280;2220;42.670;23.398;2023-11-21T15:30:30;92623.25;;;8.21;100.00
4415;BME280;2220;42.670;23.398;2023-11-21T15:32:59;92637.78;;;7.95;100.00
4415;BME280;2220;42.670;23.398;2023-11-21T15:35:25;92615.03;;;7.92;100.00
4415;BME280;2220;42.670;23.398;2023-11-21T15:37:52;92597.56;;;7.83;100.00
4415;BME280;2220;42.670;23.398;2023-11-21T15:40:18;92594.13;;;7.74;100.00
4415;BME280;2220;42.670;23.398;2023-11-21T15:42:43;92591.25;;;7.48;100.00
4415;BME280;2220;42.670;23.398;2023-11-21T15:45:10;92577.84;;;7.46;100.00
4415;BME280;2220;42.670;23.398;2023-11-21T15:47:35;92555.16;;;7.52;100.00
4415;BME280;2220;42.670;23.398;2023-11-21T15:50:01;92544.03;;;7.51;100.00
4415;BME280;2220;42.670;23.398;2023-11-21T15:52:29;92545.19;;;7.45;100.00
4415;BME280;2220;42.670;23.398;2023-11-21T15:54:54;92534.47;;;7.38;100.00
4415;BME280;2220;42.670;23.398;2023-11-21T15:57:20;92518.06;;;7.43;100.00
4415;BME280;2220;42.670;23.398;2023-11-21T15:59:47;92509.22;;;7.44;100.00
4415;BME280;2220;42.670;23.398;2023-11-21T16:02:13;92543.66;;;7.17;100.00
4415;BME280;2220;42.670;23.398;2023-11-21T16:04:41;92529.38;;;7.33;100.00
4415;BME280;2220;42.670;23.398;2023-11-21T16:07:07;92527.38;;;7.30;100.00
4415;BME280;2220;42.670;23.398;2023-11-21T16:09:33;92521.53;;;7.38;100.00
4415;BME280;2220;42.670;23.398;2023-11-21T16:12:01;92514.31;;;7.35;100.00
4415;BME280;2220;42.670;23.398;2023-11-21T16:14:35;92512.03;;;7.34;100.00
4415;BME280;2220;42.670;23.398;2023-11-21T16:17:03;92495.63;;;7.38;100.00
4415;BME280;2220;42.670;23.398;2023-11-21T16:19:29;92491.13;;;7.30;100.00
4415;BME280;2220;42.670;23.398;2023-11-21T16:21:55;92487.38;;;7.36;100.00
4415;BME280;2220;42.670;23.398;2023-11-21T16:24:20;92472.41;;;7.47;100.00
4415;BME280;2220;42.670;23.398;2023-11-21T16:26:46;92473.94;;;7.48;100.00
4415;BME280;2220;42.670;23.398;2023-11-21T16:29:12;92471.03;;;7.49;100.00
4415;BME280;2220;42.670;23.398;2023-11-21T16:31:41;92454.47;;;7.37;100.00
4415;BME280;2220;42.670;23.398;2023-11-21T16:34:15;92453.31;;;7.43;100.00
4415;BME280;2220;42.670;23.398;2023-11-21T16:36:43;92445.63;;;7.38;100.00
4415;BME280;2220;42.670;23.398;2023-11-21T16:39:10;92437.78;;;7.29;100.00
4415;BME280;2220;42.670;23.398;2023-11-21T16:41:40;92411.56;;;7.44;100.00
4415;BME280;2220;42.670;23.398;2023-11-21T16:44:13;92405.56;;;7.35;100.00
4415;BME280;2220;42.670;23.398;2023-11-21T16:46:39;92414.16;;;7.44;100.00
4415;BME280;2220;42.670;23.398;2023-11-21T16:49:04;92410.34;;;7.42;100.00
4415;BME280;2220;42.670;23.398;2023-11-21T16:51:30;92411.09;;;7.42;100.00
4415;BME280;2220;42.670;23.398;2023-11-21T16:53:56;92422.84;;;7.26;100.00
4415;BME280;2220;42.670;23.398;2023-11-21T16:56:21;92405.75;;;7.39;100.00
4415;BME280;2220;42.670;23.398;2023-11-21T16:58:47;92398.56;;;7.36;100.00
4415;BME280;2220;42.670;23.398;2023-11-21T17:01:12;92403.44;;;7.37;100.00
4415;BME280;2220;42.670;23.398;2023-11-21T17:03:38;92406.91;;;7.33;100.00
4415;BME280;2220;42.670;23.398;2023-11-21T17:06:03;92407.69;;;7.33;100.00
4415;BME280;2220;42.670;23.398;2023-11-21T17:08:33;92406.78;;;7.38;100.00
4415;BME280;2220;42.670;23.398;2023-11-21T17:10:58;92401.34;;;7.39;100.00
4415;BME280;2220;42.670;23.398;2023-11-21T17:13:24;92407.44;;;7.43;100.00
4415;BME280;2220;42.670;23.398;2023-11-21T17:15:50;92417.28;;;7.33;100.00
4415;BME280;2220;42.670;23.398;2023-11-21T17:18:16;92417.06;;;7.29;100.00
4415;BME280;2220;42.670;23.398;2023-11-21T17:20:41;92419.09;;;7.32;100.00
4415;BME280;2220;42.670;23.398;2023-11-21T17:23:07;92416.69;;;7.36;100.00
4415;BME280;2220;42.670;23.398;2023-11-21T17:25:35;92421.47;;;7.42;100.00
4415;BME280;2220;42.670;23.398;2023-11-21T17:28:01;92419.94;;;7.41;100.00
4415;BME280;2220;42.670;23.398;2023-11-21T17:30:28;92425.47;;;7.48;100.00
4415;BME280;2220;42.670;23.398;2023-11-21T17:32:53;92413.72;;;7.65;100.00
4415;BME280;2220;42.670;23.398;2023-11-21T17:35:20;92433.88;;;7.68;100.00
4415;BME280;2220;42.670;23.398;2023-11-21T17:37:47;92465.88;;;7.49;100.00
4415;BME280;2220;42.670;23.398;2023-11-21T17:40:13;92494.72;;;7.56;100.00
4415;BME280;2220;42.670;23.398;2023-11-21T17:42:40;92507.00;;;7.51;100.00
4415;BME280;2220;42.670;23.398;2023-11-21T17:45:06;92501.44;;;7.57;100.00
4415;BME280;2220;42.670;23.398;2023-11-21T17:47:32;92522.94;;;7.44;100.00
4415;BME280;2220;42.670;23.398;2023-11-21T17:49:58;92524.78;;;7.30;100.00
4415;BME280;2220;42.670;23.398;2023-11-21T17:52:23;92527.47;;;7.39;100.00
4415;BME280;2220;42.670;23.398;2023-11-21T17:54:49;92525.25;;;7.32;100.00
4415;BME280;2220;42.670;23.398;2023-11-21T17:57:15;92532.53;;;7.44;100.00
4415;BME280;2220;42.670;23.398;2023-11-21T17:59:41;92540.59;;;7.42;100.00
4415;BME280;2220;42.670;23.398;2023-11-21T18:02:10;92555.94;;;7.52;100.00
4415;BME280;2220;42.670;23.398;2023-11-21T18:04:36;92580.50;;;7.55;100.00
4415;BME280;2220;42.670;23.398;2023-11-21T18:07:02;92604.47;;;7.33;100.00
4415;BME280;2220;42.670;23.398;2023-11-21T18:09:29;92594.59;;;7.35;100.00
4415;BME280;2220;42.670;23.398;2023-11-21T18:11:55;92598.44;;;7.38;100.00
4415;BME280;2220;42.670;23.398;2023-11-21T18:14:20;92605.66;;;7.54;100.00
4415;BME280;2220;42.670;23.398;2023-11-21T18:16:46;92628.78;;;7.65;100.00
4415;BME280;2220;42.670;23.398;2023-11-21T18:19:11;92622.91;;;7.59;100.00
4415;BME280;2220;42.670;23.398;2023-11-21T18:21:41;92635.00;;;7.64;100.00
4415;BME280;2220;42.670;23.398;2023-11-21T18:24:07;92647.97;;;7.64;100.00
4415;BME280;2220;42.670;23.398;2023-11-21T18:26:33;92647.47;;;7.75;100.00
4415;BME280;2220;42.670;23.398;2023-11-21T18:28:59;92665.63;;;7.75;100.00
4415;BME280;2220;42.670;23.398;2023-11-21T18:31:25;92680.69;;;7.87;100.00
4415;BME280;2220;42.670;23.398;2023-11-21T18:33:51;92687.88;;;7.90;100.00
4415;BME280;2220;42.670;23.398;2023-11-21T18:36:17;92705.66;;;7.83;100.00
4415;BME280;2220;42.670;23.398;2023-11-21T18:38:42;92717.25;;;7.85;100.00
4415;BME280;2220;42.670;23.398;2023-11-21T18:41:08;92729.22;;;7.68;100.00
4415;BME280;2220;42.670;23.398;2023-11-21T18:43:33;92721.28;;;7.64;100.00
4415;BME280;2220;42.670;23.398;2023-11-21T18:46:01;92723.75;;;7.55;100.00
4415;BME280;2220;42.670;23.398;2023-11-21T18:48:28;92707.03;;;7.48;100.00
4415;BME280;2220;42.670;23.398;2023-11-21T18:50:53;92703.59;;;7.52;100.00
4415;BME280;2220;42.670;23.398;2023-11-21T18:53:22;92713.00;;;7.48;100.00
4415;BME280;2220;42.670;23.398;2023-11-21T18:55:49;92693.03;;;7.49;100.00
4415;BME280;2220;42.670;23.398;2023-11-21T18:58:15;92671.94;;;7.55;100.00
4415;BME280;2220;42.670;23.398;2023-11-21T19:00:41;92669.91;;;7.39;100.00
4415;BME280;2220;42.670;23.398;2023-11-21T19:03:06;92659.06;;;7.50;100.00
4415;BME280;2220;42.670;23.398;2023-11-21T19:05:33;92665.28;;;7.36;100.00
4415;BME280;2220;42.670;23.398;2023-11-21T19:07:58;92637.97;;;7.43;100.00
4415;BME280;2220;42.670;23.398;2023-11-21T19:10:24;92650.50;;;7.36;100.00
4415;BME280;2220;42.670;23.398;2023-11-21T19:12:52;92657.50;;;7.36;100.00
4415;BME280;2220;42.670;23.398;2023-11-21T19:15:19;92667.53;;;7.10;100.00
4415;BME280;2220;42.670;23.398;2023-11-21T19:17:45;92622.69;;;7.14;100.00
4415;BME280;2220;42.670;23.398;2023-11-21T19:20:11;92617.41;;;7.19;100.00
4415;BME280;2220;42.670;23.398;2023-11-21T19:22:37;92637.38;;;6.86;100.00
4415;BME280;2220;42.670;23.398;2023-11-21T19:25:04;92611.41;;;6.91;100.00
4415;BME280;2220;42.670;23.398;2023-11-21T19:27:30;92597.34;;;7.11;100.00
4415;BME280;2220;42.670;23.398;2023-11-21T19:29:57;92591.03;;;7.17;100.00
4415;BME280;2220;42.670;23.398;2023-11-21T19:32:23;92587.09;;;7.06;100.00
4415;BME280;2220;42.670;23.398;2023-11-21T19:34:48;92581.91;;;6.92;100.00
4415;BME280;2220;42.670;23.398;2023-11-21T19:37:14;92561.28;;;7.01;100.00
4415;BME280;2220;42.670;23.398;2023-11-21T19:39:39;92553.59;;;6.82;100.00
4415;BME280;2220;42.670;23.398;2023-11-21T19:42:05;92532.06;;;7.00;100.00
4415;BME280;2220;42.670;23.398;2023-11-21T19:44:30;92529.66;;;7.04;100.00
4415;BME280;2220;42.670;23.398;2023-11-21T19:46:56;92508.56;;;7.11;100.00
4415;BME280;2220;42.670;23.398;2023-11-21T19:49:21;92500.22;;;7.14;100.00
4415;BME280;2220;42.670;23.398;2023-11-21T19:51:47;92493.13;;;7.19;100.00
4415;BME280;2220;42.670;23.398;2023-11-21T19:54:15;92497.00;;;7.22;100.00
4415;BME280;2220;42.670;23.398;2023-11-21T19:56:40;92496.19;;;7.21;100.00
4415;BME280;2220;42.670;23.398;2023-11-21T19:59:07;92493.03;;;7.38;100.00
4415;BME280;2220;42.670;23.398;2023-11-21T20:01:34;92519.69;;;7.25;100.00
4415;BME280;2220;42.670;23.398;2023-11-21T20:03:59;92504.72;;;7.36;100.00
4415;BME280;2220;42.670;23.398;2023-11-21T20:06:25;92518.81;;;7.29;100.00
4415;BME280;2220;42.670;23.398;2023-11-21T20:08:50;92517.41;;;7.23;100.00
4415;BME280;2220;42.670;23.398;2023-11-21T20:11:20;92495.50;;;7.29;100.00
4415;BME280;2220;42.670;23.398;2023-11-21T20:13:47;92500.31;;;7.36;100.00
4415;BME280;2220;42.670;23.398;2023-11-21T20:16:13;92505.50;;;7.36;100.00
4415;BME280;2220;42.670;23.398;2023-11-21T20:18:41;92503.50;;;7.33;100.00
4415;BME280;2220;42.670;23.398;2023-11-21T20:21:06;92511.06;;;7.16;100.00
4415;BME280;2220;42.670;23.398;2023-11-21T20:23:33;92498.44;;;7.14;100.00
4415;BME280;2220;42.670;23.398;2023-11-21T20:25:59;92499.38;;;7.05;100.00
4415;BME280;2220;42.670;23.398;2023-11-21T20:28:26;92474.06;;;7.01;100.00
4415;BME280;2220;42.670;23.398;2023-11-21T20:30:52;92471.66;;;7.05;100.00
4415;BME280;2220;42.670;23.398;2023-11-21T20:33:18;92470.63;;;7.06;100.00
4415;BME280;2220;42.670;23.398;2023-11-21T20:35:45;92470.22;;;7.13;100.00
4415;BME280;2220;42.670;23.398;2023-11-21T20:38:12;92472.03;;;7.12;100.00
4415;BME280;2220;42.670;23.398;2023-11-21T20:40:39;92502.91;;;6.95;100.00
4415;BME280;2220;42.670;23.398;2023-11-21T20:43:04;92475.31;;;6.90;100.00
4415;BME280;2220;42.670;23.398;2023-11-21T20:45:30;92458.44;;;7.07;100.00
4415;BME280;2220;42.670;23.398;2023-11-21T20:47:56;92468.13;;;7.01;100.00
4415;BME280;2220;42.670;23.398;2023-11-21T20:50:22;92452.38;;;7.11;100.00
4415;BME280;2220;42.670;23.398;2023-11-21T20:52:48;92443.09;;;7.10;100.00
4415;BME280;2220;42.670;23.398;2023-11-21T20:55:14;92438.59;;;7.16;100.00
4415;BME280;2220;42.670;23.398;2023-11-21T20:57:40;92443.00;;;7.15;100.00
4415;BME280;2220;42.670;23.398;2023-11-21T21:00:06;92432.81;;;7.19;100.00
4415;BME280;2220;42.670;23.398;2023-11-21T21:02:35;92433.28;;;7.21;100.00
4415;BME280;2220;42.670;23.398;2023-11-21T21:05:01;92428.72;;;7.18;100.00
4415;BME280;2220;42.670;23.398;2023-11-21T21:07:26;92411.63;;;7.31;100.00
4415;BME280;2220;42.670;23.398;2023-11-21T21:09:52;92423.81;;;7.30;100.00
4415;BME280;2220;42.670;23.398;2023-11-21T21:12:17;92411.56;;;7.22;100.00
4415;BME280;2220;42.670;23.398;2023-11-21T21:14:43;92407.31;;;7.26;100.00
4415;BME280;2220;42.670;23.398;2023-11-21T21:17:08;92425.34;;;7.17;100.00
4415;BME280;2220;42.670;23.398;2023-11-21T21:19:34;92415.38;;;7.24;100.00
4415;BME280;2220;42.670;23.398;2023-11-21T21:21:59;92402.31;;;7.29;100.00
4415;BME280;2220;42.670;23.398;2023-11-21T21:24:26;92409.81;;;7.31;100.00
4415;BME280;2220;42.670;23.398;2023-11-21T21:26:52;92426.78;;;7.10;100.00
4415;BME280;2220;42.670;23.398;2023-11-21T21:29:17;92429.69;;;7.08;100.00
4415;BME280;2220;42.670;23.398;2023-11-21T21:31:45;92412.78;;;7.11;100.00
4415;BME280;2220;42.670;23.398;2023-11-21T21:34:11;92423.06;;;7.16;100.00
4415;BME280;2220;42.670;23.398;2023-11-21T21:36:38;92424.59;;;7.03;100.00
4415;BME280;2220;42.670;23.398;2023-11-21T21:39:07;92414.63;;;7.10;100.00
4415;BME280;2220;42.670;23.398;2023-11-21T21:41:32;92410.59;;;7.18;100.00
4415;BME280;2220;42.670;23.398;2023-11-21T21:43:58;92403.78;;;7.22;100.00
4415;BME280;2220;42.670;23.398;2023-11-21T21:46:23;92419.03;;;7.23;100.00
4415;BME280;2220;42.670;23.398;2023-11-21T21:48:49;92427.38;;;7.07;100.00
4415;BME280;2220;42.670;23.398;2023-11-21T21:51:18;92427.00;;;6.99;100.00
4415;BME280;2220;42.670;23.398;2023-11-21T21:53:45;92412.25;;;7.00;100.00
4415;BME280;2220;42.670;23.398;2023-11-21T21:56:10;92409.94;;;6.98;100.00
4415;BME280;2220;42.670;23.398;2023-11-21T21:58:37;92419.63;;;7.07;100.00
4415;BME280;2220;42.670;23.398;2023-11-21T22:01:03;92404.09;;;7.07;100.00
4415;BME280;2220;42.670;23.398;2023-11-21T22:03:29;92407.22;;;7.17;100.00
4415;BME280;2220;42.670;23.398;2023-11-21T22:05:54;92398.03;;;7.11;100.00
4415;BME280;2220;42.670;23.398;2023-11-21T22:08:25;92388.25;;;7.22;100.00
4415;BME280;2220;42.670;23.398;2023-11-21T22:10:51;92396.00;;;7.22;100.00
4415;BME280;2220;42.670;23.398;2023-11-21T22:13:16;92383.25;;;7.25;100.00
4415;BME280;2220;42.670;23.398;2023-11-21T22:15:42;92396.34;;;7.29;100.00
4415;BME280;2220;42.670;23.398;2023-11-21T22:18:07;92405.00;;;7.24;100.00
4415;BME280;2220;42.670;23.398;2023-11-21T22:20:34;92414.41;;;7.20;100.00
4415;BME280;2220;42.670;23.398;2023-11-21T22:23:00;92406.94;;;7.19;100.00
4415;BME280;2220;42.670;23.398;2023-11-21T22:25:26;92403.28;;;7.20;100.00
4415;BME280;2220;42.670;23.398;2023-11-21T22:27:51;92419.88;;;7.19;100.00
4415;BME280;2220;42.670;23.398;2023-11-21T22:30:19;92425.06;;;7.19;100.00
4415;BME280;2220;42.670;23.398;2023-11-21T22:32:45;92444.06;;;7.14;100.00
4415;BME280;2220;42.670;23.398;2023-11-21T22:35:10;92425.34;;;7.17;100.00
4415;BME280;2220;42.670;23.398;2023-11-21T22:37:36;92417.84;;;7.29;100.00
4415;BME280;2220;42.670;23.398;2023-11-21T22:40:03;92420.16;;;7.31;100.00
4415;BME280;2220;42.670;23.398;2023-11-21T22:42:32;92419.56;;;7.34;100.00
4415;BME280;2220;42.670;23.398;2023-11-21T22:44:58;92442.41;;;7.18;100.00
4415;BME280;2220;42.670;23.398;2023-11-21T22:47:24;92437.69;;;7.20;100.00
4415;BME280;2220;42.670;23.398;2023-11-21T22:49:49;92431.91;;;7.37;100.00
4415;BME280;2220;42.670;23.398;2023-11-21T22:52:15;92428.94;;;7.44;100.00
4415;BME280;2220;42.670;23.398;2023-11-21T22:54:40;92438.03;;;7.55;100.00
4415;BME280;2220;42.670;23.398;2023-11-21T22:57:06;92435.03;;;7.62;100.00
4415;BME280;2220;42.670;23.398;2023-11-21T22:59:31;92442.59;;;7.72;100.00
4415;BME280;2220;42.670;23.398;2023-11-21T23:01:57;92448.34;;;7.69;100.00
4415;BME280;2220;42.670;23.398;2023-11-21T23:04:22;92462.50;;;7.63;100.00
4415;BME280;2220;42.670;23.398;2023-11-21T23:06:49;92472.56;;;7.64;100.00
4415;BME280;2220;42.670;23.398;2023-11-21T23:09:15;92480.44;;;7.59;100.00
4415;BME280;2220;42.670;23.398;2023-11-21T23:11:41;92479.00;;;7.53;100.00
4415;BME280;2220;42.670;23.398;2023-11-21T23:14:08;92490.91;;;7.54;100.00
4415;BME280;2220;42.670;23.398;2023-11-21T23:16:35;92496.09;;;7.54;100.00
4415;BME280;2220;42.670;23.398;2023-11-21T23:19:01;92501.53;;;7.52;100.00
4415;BME280;2220;42.670;23.398;2023-11-21T23:21:26;92507.41;;;7.44;100.00
4415;BME280;2220;42.670;23.398;2023-11-21T23:23:55;92504.25;;;7.47;100.00
4415;BME280;2220;42.670;23.398;2023-11-21T23:26:22;92508.84;;;7.50;100.00